Time;durP1;ratioP1;P1;durP2;ratioP2;P2;SDS_P1;SDS_P2;PMS_P1;PMS_P2;Temp;Humidity;BMP_temperature;BMP_pressure;BME280_temperature;BME280_humidity;BME280_pressure;Samples;Min_cycle;Max_cycle;Signal;HPM_P1;HPM_P2
2023/08/04 00:02:54;;;;;;;;;;;;;;;15.97;82.7998;101090.6;;;;-69
2023/08/04 00:07:54;;;;;;;;;;;;;;;15.96;82.60938;101091.4;;;;-70
2023/08/04 00:11:42;;;;;;;0.7;0.5;;;;;;;;;;;;;-68
2023/08/04 00:12:54;;;;;;;;;;;;;;;15.96;82.57617;101088.4;;;;-69
2023/08/04 00:17:54;;;;;;;;;;;;;;;15.93;82.79297;101088.5;;;;-68
2023/08/04 00:22:57;;;;;;;;;;;;;;;15.94;82.9082;101089.1;;;;-68
2023/08/04 00:27:54;;;;;;;;;;;;;;;15.9;82.67773;101089.9;;;;-68
2023/08/04 00:32:56;;;;;;;;;;;;;;;15.9;82.72266;101088.4;;;;-68
2023/08/04 00:37:56;;;;;;;;;;;;;;;15.89;82.83105;101085.4;;;;-69
2023/08/04 00:41:44;;;;;;;0.2;0;;;;;;;;;;;;;-68
2023/08/04 00:42:54;;;;;;;;;;;;;;;15.88;82.79785;101092.4;;;;-69
2023/08/04 00:47:56;;;;;;;;;;;;;;;15.86;82.76953;101095;;;;-67
2023/08/04 00:52:54;;;;;;;;;;;;;;;15.85;82.87988;101094.3;;;;-68
2023/08/04 00:57:54;;;;;;;;;;;;;;;15.86;82.88184;101101.2;;;;-68
2023/08/04 01:02:54;;;;;;;;;;;;;;;15.86;83.73242;101103.9;;;;-69
2023/08/04 01:08:00;;;;;;;;;;;;;;;15.88;83.9502;101105.6;;;;-68
2023/08/04 01:11:50;;;;;;;0.2;0;;;;;;;;;;;;;-69
2023/08/04 01:12:55;;;;;;;;;;;;;;;15.88;83.97266;101111;;;;-69
2023/08/04 01:17:54;;;;;;;;;;;;;;;15.87;83.92285;101105.5;;;;-67
2023/08/04 01:22:54;;;;;;;;;;;;;;;15.86;83.74316;101107.9;;;;-69
2023/08/04 01:27:56;;;;;;;;;;;;;;;15.82;83.9248;101109.8;;;;-68
2023/08/04 01:32:54;;;;;;;;;;;;;;;15.8;83.51855;101105.2;;;;-69
2023/08/04 01:37:54;;;;;;;;;;;;;;;15.78;83.46094;101105.1;;;;-68
2023/08/04 01:41:48;;;;;;;0.2;0;;;;;;;;;;;;;-70
2023/08/04 01:42:54;;;;;;;;;;;;;;;15.74;83.75488;101107.2;;;;-69
2023/08/04 01:47:55;;;;;;;;;;;;;;;15.72;83.72754;101119.5;;;;-69
2023/08/04 01:52:54;;;;;;;;;;;;;;;15.7;83.70313;101120.4;;;;-71
2023/08/04 01:57:54;;;;;;;;;;;;;;;15.69;83.4873;101130;;;;-68
2023/08/04 02:02:54;;;;;;;;;;;;;;;15.72;83.38184;101129.5;;;;-69
2023/08/04 02:07:54;;;;;;;;;;;;;;;15.74;83.48633;101131.1;;;;-68
2023/08/04 02:11:51;;;;;;;0.3;0.1;;;;;;;;;;;;;-68
2023/08/04 02:12:54;;;;;;;;;;;;;;;15.75;83.77832;101133.9;;;;-67
2023/08/04 02:17:54;;;;;;;;;;;;;;;15.75;84.00293;101149;;;;-67
2023/08/04 02:22:54;;;;;;;;;;;;;;;15.75;84.24805;101148.6;;;;-70
2023/08/04 02:27:54;;;;;;;;;;;;;;;15.75;84.28223;101152.2;;;;-68
2023/08/04 02:32:54;;;;;;;;;;;;;;;15.73;84.07715;101153.6;;;;-69
2023/08/04 02:38:01;;;;;;;;;;;;;;;15.72;84.10938;101155.2;;;;-68
2023/08/04 02:41:53;;;;;;;0.2;0;;;;;;;;;;;;;-71
2023/08/04 02:42:54;;;;;;;;;;;;;;;15.72;84.25293;101158.9;;;;-68
2023/08/04 02:47:54;;;;;;;;;;;;;;;15.7;84.02539;101157.8;;;;-68
2023/08/04 02:52:54;;;;;;;;;;;;;;;15.68;83.88965;101160.6;;;;-69
2023/08/04 02:57:54;;;;;;;;;;;;;;;15.67;84.06641;101160;;;;-68
2023/08/04 03:02:54;;;;;;;;;;;;;;;15.67;84.03125;101160.4;;;;-68
2023/08/04 03:07:54;;;;;;;;;;;;;;;15.66;83.91992;101164.1;;;;-68
2023/08/04 03:11:55;;;;;;;0.2;0;;;;;;;;;;;;;-69
2023/08/04 03:12:54;;;;;;;;;;;;;;;15.65;83.79297;101168.7;;;;-68
2023/08/04 03:17:55;;;;;;;;;;;;;;;15.65;83.84961;101166.8;;;;-68
2023/08/04 03:22:54;;;;;;;;;;;;;;;15.64;84.30566;101168.3;;;;-68
2023/08/04 03:27:54;;;;;;;;;;;;;;;15.64;83.74707;101173.7;;;;-67
2023/08/04 03:32:54;;;;;;;;;;;;;;;15.63;83.91309;101177.9;;;;-67
2023/08/04 03:37:54;;;;;;;;;;;;;;;15.62;83.84277;101178.7;;;;-68
2023/08/04 03:41:58;;;;;;;0.2;0.1;;;;;;;;;;;;;-69
2023/08/04 03:42:54;;;;;;;;;;;;;;;15.62;83.84277;101180.1;;;;-69
2023/08/04 03:47:54;;;;;;;;;;;;;;;15.61;83.6748;101186;;;;-69
2023/08/04 03:52:54;;;;;;;;;;;;;;;15.61;83.60742;101188;;;;-68
2023/08/04 03:57:55;;;;;;;;;;;;;;;15.63;83.75684;101198.3;;;;-68
2023/08/04 04:02:54;;;;;;;;;;;;;;;15.6;83.92871;101198.3;;;;-68
2023/08/04 04:07:55;;;;;;;;;;;;;;;15.6;83.88574;101199.4;;;;-69
2023/08/04 04:11:59;;;;;;;0.2;0.1;;;;;;;;;;;;;-69
2023/08/04 04:12:54;;;;;;;;;;;;;;;15.61;83.60742;101202.1;;;;-70
2023/08/04 04:17:54;;;;;;;;;;;;;;;15.6;83.53906;101204.1;;;;-68
2023/08/04 04:22:54;;;;;;;;;;;;;;;15.59;83.54785;101206.8;;;;-66
2023/08/04 04:27:54;;;;;;;;;;;;;;;15.59;83.53516;101208.6;;;;-68
2023/08/04 04:32:54;;;;;;;;;;;;;;;15.6;83.52539;101216.2;;;;-68
2023/08/04 04:37:54;;;;;;;;;;;;;;;15.6;83.49219;101217.7;;;;-68
2023/08/04 04:42:01;;;;;;;0.2;0;;;;;;;;;;;;;-69
2023/08/04 04:42:54;;;;;;;;;;;;;;;15.6;83.49219;101222.4;;;;-68
2023/08/04 04:47:56;;;;;;;;;;;;;;;15.61;83.58496;101227.8;;;;-69
2023/08/04 04:52:54;;;;;;;;;;;;;;;15.62;83.31641;101233.6;;;;-67
2023/08/04 04:57:54;;;;;;;;;;;;;;;15.64;83.5459;101240;;;;-68
2023/08/04 05:02:54;;;;;;;;;;;;;;;15.66;83.46094;101243.6;;;;-68
2023/08/04 05:07:54;;;;;;;;;;;;;;;15.67;83.4834;101248.4;;;;-68
2023/08/04 05:12:04;;;;;;;0.2;0.1;;;;;;;;;;;;;-68
2023/08/04 05:12:54;;;;;;;;;;;;;;;15.71;83.69336;101256.8;;;;-69
2023/08/04 05:17:54;;;;;;;;;;;;;;;15.73;83.64063;101260.4;;;;-68
2023/08/04 05:22:54;;;;;;;;;;;;;;;15.78;83.51563;101268.3;;;;-68
2023/08/04 05:27:55;;;;;;;;;;;;;;;15.81;83.45508;101267.7;;;;-69
2023/08/04 05:32:55;;;;;;;;;;;;;;;15.85;83.91895;101279.5;;;;-67
2023/08/04 05:37:54;;;;;;;;;;;;;;;15.88;84.04883;101281.5;;;;-68
2023/08/04 05:42:06;;;;;;;0.2;0.1;;;;;;;;;;;;;-68
2023/08/04 05:42:57;;;;;;;;;;;;;;;15.92;83.94531;101286.9;;;;-69
2023/08/04 05:47:54;;;;;;;;;;;;;;;15.95;84.05371;101304.1;;;;-68
2023/08/04 05:52:54;;;;;;;;;;;;;;;15.99;84.18164;101310.9;;;;-69
2023/08/04 05:57:54;;;;;;;;;;;;;;;16.01;84.51172;101316.8;;;;-69
2023/08/04 06:02:56;;;;;;;;;;;;;;;16.02;84.53516;101316.3;;;;-68
2023/08/04 06:07:54;;;;;;;;;;;;;;;16.03;84.34668;101311.5;;;;-68
2023/08/04 06:12:08;;;;;;;0.2;0.1;;;;;;;;;;;;;-68
2023/08/04 06:12:54;;;;;;;;;;;;;;;16.05;84.27344;101322.4;;;;-68
2023/08/04 06:17:54;;;;;;;;;;;;;;;16.12;83.93848;101331;;;;-68
2023/08/04 06:22:55;;;;;;;;;;;;;;;16.17;84.27344;101329;;;;-68
2023/08/04 06:27:54;;;;;;;;;;;;;;;16.28;84.1582;101341.8;;;;-69
2023/08/04 06:32:57;;;;;;;;;;;;;;;16.41;84.63281;101346.9;;;;-68
2023/08/04 06:37:54;;;;;;;;;;;;;;;16.55;84.26465;101353.5;;;;-68
2023/08/04 06:42:10;;;;;;;0.2;0;;;;;;;;;;;;;-70
2023/08/04 06:42:56;;;;;;;;;;;;;;;16.62;84.27832;101354.6;;;;-68
2023/08/04 06:47:54;;;;;;;;;;;;;;;16.68;84.23633;101353.7;;;;-68
2023/08/04 06:52:55;;;;;;;;;;;;;;;16.74;84.28027;101357.5;;;;-69
2023/08/04 06:57:54;;;;;;;;;;;;;;;16.82;84.2041;101362.3;;;;-69
2023/08/04 07:02:56;;;;;;;;;;;;;;;16.91;83.90723;101369.4;;;;-69
2023/08/04 07:07:54;;;;;;;;;;;;;;;17.02;83.64746;101380.7;;;;-69
2023/08/04 07:12:13;;;;;;;0.2;0;;;;;;;;;;;;;-68
2023/08/04 07:12:54;;;;;;;;;;;;;;;17.05;83.19434;101387.3;;;;-68
2023/08/04 07:17:54;;;;;;;;;;;;;;;17.04;83.16895;101388;;;;-67
2023/08/04 07:22:54;;;;;;;;;;;;;;;17.08;83.33398;101387.9;;;;-68
2023/08/04 07:27:54;;;;;;;;;;;;;;;17.19;83.34375;101395.7;;;;-68
2023/08/04 07:32:54;;;;;;;;;;;;;;;17.3;83.10547;101393.8;;;;-69
2023/08/04 07:37:56;;;;;;;;;;;;;;;17.46;82.97949;101392.2;;;;-70
2023/08/04 07:42:16;;;;;;;0.2;0;;;;;;;;;;;;;-68
2023/08/04 07:42:54;;;;;;;;;;;;;;;17.79;82.08691;101397;;;;-68
2023/08/04 07:47:54;;;;;;;;;;;;;;;18.3;82.37012;101394.5;;;;-68
2023/08/04 07:52:54;;;;;;;;;;;;;;;18.93;80.21973;101398.2;;;;-68
2023/08/04 07:57:54;;;;;;;;;;;;;;;19.09;79.66406;101409.7;;;;-68
2023/08/04 08:02:55;;;;;;;;;;;;;;;19.07;79.8291;101413.4;;;;-69
2023/08/04 08:07:54;;;;;;;;;;;;;;;19.08;79.40137;101418;;;;-67
2023/08/04 08:12:18;;;;;;;0.2;0.1;;;;;;;;;;;;;-68
2023/08/04 08:12:54;;;;;;;;;;;;;;;18.99;79.62109;101417.9;;;;-68
2023/08/04 08:17:56;;;;;;;;;;;;;;;18.99;79.54297;101421.9;;;;-68
2023/08/04 08:22:54;;;;;;;;;;;;;;;19.02;79.13184;101422.3;;;;-68
2023/08/04 08:27:55;;;;;;;;;;;;;;;19.17;79.14648;101425.3;;;;-67
2023/08/04 08:32:54;;;;;;;;;;;;;;;19.44;78.79883;101433.8;;;;-68
2023/08/04 08:37:54;;;;;;;;;;;;;;;19.85;78.20508;101437.5;;;;-67
2023/08/04 08:42:21;;;;;;;0.2;0;;;;;;;;;;;;;-67
2023/08/04 08:42:54;;;;;;;;;;;;;;;20.13;77.60742;101443.2;;;;-68
2023/08/04 08:47:54;;;;;;;;;;;;;;;20.24;76.53027;101450.7;;;;-68
2023/08/04 08:52:59;;;;;;;;;;;;;;;20.06;76.56543;101455.8;;;;-69
2023/08/04 08:57:57;;;;;;;;;;;;;;;19.91;76.80078;101458.9;;;;-68
2023/08/04 09:02:54;;;;;;;;;;;;;;;19.86;76.57813;101465;;;;-67
2023/08/04 09:07:54;;;;;;;;;;;;;;;19.87;76.85059;101467;;;;-68
2023/08/04 09:12:25;;;;;;;0.4;0.1;;;;;;;;;;;;;-68
2023/08/04 09:12:56;;;;;;;;;;;;;;;20;76.87305;101474;;;;-67
2023/08/04 09:17:54;;;;;;;;;;;;;;;20.25;76.9375;101473.4;;;;-67
2023/08/04 09:22:54;;;;;;;;;;;;;;;20.44;75.82617;101479.8;;;;-68
2023/08/04 09:27:55;;;;;;;;;;;;;;;20.67;75.20898;101482.4;;;;-68
2023/08/04 09:32:54;;;;;;;;;;;;;;;20.97;74.50977;101485.6;;;;-67
2023/08/04 09:37:57;;;;;;;;;;;;;;;21.31;73.74805;101487.2;;;;-69
2023/08/04 09:42:27;;;;;;;0.2;0.1;;;;;;;;;;;;;-67
2023/08/04 09:42:54;;;;;;;;;;;;;;;21.48;72.78809;101487.3;;;;-68
2023/08/04 09:47:54;;;;;;;;;;;;;;;21.63;72.44922;101496.6;;;;-68
2023/08/04 09:53:04;;;;;;;;;;;;;;;21.75;71.38574;101494.2;;;;-67
2023/08/04 09:57:54;;;;;;;;;;;;;;;21.78;71.48047;101495.4;;;;-68
2023/08/04 10:02:59;;;;;;;;;;;;;;;21.95;72.00879;101492.9;;;;-69
2023/08/04 10:07:54;;;;;;;;;;;;;;;22.43;71.47266;101500.3;;;;-69
2023/08/04 10:12:32;;;;;;;0.2;0;;;;;;;;;;;;;-70
2023/08/04 10:12:54;;;;;;;;;;;;;;;22.93;69.7002;101490.3;;;;-70
2023/08/04 10:17:54;;;;;;;;;;;;;;;23.43;68.73926;101494.7;;;;-69
2023/08/04 10:22:54;;;;;;;;;;;;;;;23.7;67.46387;101499.2;;;;-70
2023/08/04 10:27:54;;;;;;;;;;;;;;;23.6;66.25977;101503.3;;;;-70
2023/08/04 10:32:54;;;;;;;;;;;;;;;23.39;66.57129;101502;;;;-70
2023/08/04 10:37:55;;;;;;;;;;;;;;;23.3;67.29102;101501.7;;;;-68
2023/08/04 10:42:34;;;;;;;0.2;0;;;;;;;;;;;;;-67
2023/08/04 10:43:11;;;;;;;;;;;;;;;23.32;66.37891;101511.9;;;;-68
2023/08/04 10:47:55;;;;;;;;;;;;;;;23.39;66.61719;101513;;;;-68
2023/08/04 10:52:54;;;;;;;;;;;;;;;23.45;65.89551;101517.4;;;;-68
2023/08/04 10:57:56;;;;;;;;;;;;;;;23.48;66.18555;101525.6;;;;-68
2023/08/04 11:02:55;;;;;;;;;;;;;;;23.58;65.98145;101533.7;;;;-70
2023/08/04 11:07:54;;;;;;;;;;;;;;;23.73;65.80957;101529.3;;;;-68
2023/08/04 11:12:39;;;;;;;0.2;0;;;;;;;;;;;;;-68
2023/08/04 11:12:56;;;;;;;;;;;;;;;23.89;66.82813;101533.4;;;;-68
2023/08/04 11:17:57;;;;;;;;;;;;;;;23.94;65.47363;101537.8;;;;-69
2023/08/04 11:22:57;;;;;;;;;;;;;;;23.92;65.00098;101548.9;;;;-69
2023/08/04 11:27:54;;;;;;;;;;;;;;;23.87;64.83398;101552.3;;;;-68
2023/08/04 11:32:55;;;;;;;;;;;;;;;23.85;65.75781;101560.7;;;;-70
2023/08/04 11:37:54;;;;;;;;;;;;;;;23.88;65.93555;101561.1;;;;-68
2023/08/04 11:42:46;;;;;;;0.2;0;;;;;;;;;;;;;-67
2023/08/04 11:42:58;;;;;;;;;;;;;;;23.98;65.00977;101559.3;;;;-67
2023/08/04 11:47:54;;;;;;;;;;;;;;;24.04;63.80176;101562.9;;;;-67
2023/08/04 11:52:54;;;;;;;;;;;;;;;23.99;63.52148;101568.4;;;;-67
2023/08/04 11:57:55;;;;;;;;;;;;;;;23.93;64.14258;101568.2;;;;-68
2023/08/04 12:03:05;;;;;;;;;;;;;;;23.9;64.83691;101574.4;;;;-68
2023/08/04 12:07:55;;;;;;;;;;;;;;;24.12;65.32617;101579.5;;;;-68
2023/08/04 12:12:47;;;;;;;0.2;0;;;;;;;;;;;;;-68
2023/08/04 12:12:58;;;;;;;;;;;;;;;24.49;64.12988;101586.4;;;;-70
2023/08/04 12:17:54;;;;;;;;;;;;;;;24.66;63.09863;101590.4;;;;-68
2023/08/04 12:22:54;;;;;;;;;;;;;;;24.48;63.30273;101596.7;;;;-67
2023/08/04 12:27:54;;;;;;;;;;;;;;;24.56;63.15332;101603.8;;;;-69
2023/08/04 12:32:57;;;;;;;;;;;;;;;24.6;64.85742;101610;;;;-67
2023/08/04 12:37:54;;;;;;;;;;;;;;;24.61;63.40039;101614.7;;;;-68
2023/08/04 12:42:51;;;;;;;0.2;0;;;;;;;;;;;;;-69
2023/08/04 12:43:05;;;;;;;;;;;;;;;24.74;62.64941;101607.5;;;;-69
2023/08/04 12:47:55;;;;;;;;;;;;;;;24.76;63.18164;101609.7;;;;-67
2023/08/04 12:52:58;;;;;;;;;;;;;;;24.64;62.05078;101618.4;;;;-68
2023/08/04 12:57:54;;;;;;;;;;;;;;;24.5;61.45605;101624.2;;;;-67
2023/08/04 13:02:54;;;;;;;;;;;;;;;24.48;61.47852;101630.6;;;;-67
2023/08/04 13:07:56;;;;;;;;;;;;;;;24.51;61.97461;101630;;;;-68
2023/08/04 13:12:54;;;;;;;;;;;;;;;24.47;61.68262;101631.9;;;;-69
2023/08/04 13:13:03;;;;;;;0.2;0;;;;;;;;;;;;;-69
2023/08/04 13:17:54;;;;;;;;;;;;;;;24.42;61.42383;101635.2;;;;-68
2023/08/04 13:22:54;;;;;;;;;;;;;;;24.5;62.44531;101638.8;;;;-69
2023/08/04 13:27:54;;;;;;;;;;;;;;;24.68;62.14746;101640.8;;;;-67
2023/08/04 13:32:54;;;;;;;;;;;;;;;24.63;61.41797;101643.6;;;;-68
2023/08/04 13:37:54;;;;;;;;;;;;;;;24.56;61.94727;101645.9;;;;-67
2023/08/04 13:42:54;;;;;;;;;;;;;;;24.56;61.16602;101650.2;;;;-67
2023/08/04 13:43:03;;;;;;;0.2;0.1;;;;;;;;;;;;;-67
2023/08/04 13:47:54;;;;;;;;;;;;;;;24.58;62.17969;101655.5;;;;-68
2023/08/04 13:52:54;;;;;;;;;;;;;;;24.7;62.83887;101653.7;;;;-69
2023/08/04 13:57:54;;;;;;;;;;;;;;;24.7;62.19727;101656.7;;;;-68
2023/08/04 14:02:54;;;;;;;;;;;;;;;24.62;62.99023;101652.9;;;;-67
2023/08/04 14:07:54;;;;;;;;;;;;;;;24.58;63.61523;101650.6;;;;-68
2023/08/04 14:12:54;;;;;;;;;;;;;;;24.51;62.88184;101651.9;;;;-68
2023/08/04 14:13:04;;;;;;;0.2;0.1;;;;;;;;;;;;;-69
2023/08/04 14:17:54;;;;;;;;;;;;;;;24.4;62.63672;101657.4;;;;-68
2023/08/04 14:22:54;;;;;;;;;;;;;;;24.3;63.38184;101657.8;;;;-69
2023/08/04 14:27:54;;;;;;;;;;;;;;;24.66;63.72949;101646.9;;;;-67
2023/08/04 14:32:54;;;;;;;;;;;;;;;25.22;61.87695;101646.2;;;;-69
2023/08/04 14:37:54;;;;;;;;;;;;;;;25.58;60.95898;101651.1;;;;-68
2023/08/04 14:42:54;;;;;;;;;;;;;;;25.41;60.72852;101652.7;;;;-69
2023/08/04 14:43:11;;;;;;;0.2;0;;;;;;;;;;;;;-70
2023/08/04 14:47:54;;;;;;;;;;;;;;;25.11;61.35547;101653.8;;;;-68
2023/08/04 14:52:54;;;;;;;;;;;;;;;24.84;61.23828;101665.8;;;;-68
2023/08/04 14:57:54;;;;;;;;;;;;;;;24.81;62.86621;101663;;;;-67
2023/08/04 15:02:54;;;;;;;;;;;;;;;24.92;61.7666;101662.6;;;;-69
2023/08/04 15:07:54;;;;;;;;;;;;;;;24.76;62.30859;101671.3;;;;-68
2023/08/04 15:12:54;;;;;;;;;;;;;;;24.54;62.7373;101667.6;;;;-69
2023/08/04 15:13:13;;;;;;;1.2;0.1;;;;;;;;;;;;;-69
2023/08/04 15:17:56;;;;;;;;;;;;;;;24.32;63.49707;101673.6;;;;-69
2023/08/04 15:22:54;;;;;;;;;;;;;;;24.16;63.69336;101677.1;;;;-68
2023/08/04 15:27:58;;;;;;;;;;;;;;;24.07;64.20898;101679.8;;;;-67
2023/08/04 15:32:56;;;;;;;;;;;;;;;24.01;63.86816;101678.4;;;;-68
2023/08/04 15:37:54;;;;;;;;;;;;;;;23.88;64.39941;101675.6;;;;-68
2023/08/04 15:42:54;;;;;;;;;;;;;;;23.65;64.2627;101684.5;;;;-67
2023/08/04 15:43:19;;;;;;;0.2;0;;;;;;;;;;;;;-69
2023/08/04 15:47:54;;;;;;;;;;;;;;;23.5;64.40137;101683.8;;;;-68
2023/08/04 15:52:54;;;;;;;;;;;;;;;23.38;64.25781;101677.2;;;;-70
2023/08/04 15:57:54;;;;;;;;;;;;;;;23.29;64.3252;101684;;;;-68
2023/08/04 16:02:54;;;;;;;;;;;;;;;23.16;63.25391;101685.8;;;;-71
2023/08/04 16:07:54;;;;;;;;;;;;;;;22.94;63.69238;101695.4;;;;-68
2023/08/04 16:12:54;;;;;;;;;;;;;;;22.76;64.31836;101703.4;;;;-68
2023/08/04 16:13:21;;;;;;;0.2;0;;;;;;;;;;;;;-68
2023/08/04 16:17:54;;;;;;;;;;;;;;;22.64;64.74707;101696.6;;;;-68
2023/08/04 16:22:54;;;;;;;;;;;;;;;22.58;65.40039;101701.3;;;;-71
2023/08/04 16:27:54;;;;;;;;;;;;;;;22.56;65.80859;101702.8;;;;-69
2023/08/04 16:32:56;;;;;;;;;;;;;;;22.53;65.8623;101710.3;;;;-69
2023/08/04 16:37:54;;;;;;;;;;;;;;;22.51;65.92773;101705.4;;;;-70
2023/08/04 16:42:54;;;;;;;;;;;;;;;22.49;66.18652;101705.3;;;;-68
2023/08/04 16:43:25;;;;;;;0.2;0;;;;;;;;;;;;;-69
2023/08/04 16:47:54;;;;;;;;;;;;;;;22.44;66.27148;101707.2;;;;-70
2023/08/04 16:52:54;;;;;;;;;;;;;;;22.37;66.43164;101711.3;;;;-69
2023/08/04 16:57:55;;;;;;;;;;;;;;;22.29;66.53516;101712.7;;;;-68
2023/08/04 17:02:54;;;;;;;;;;;;;;;22.21;66.7627;101716.8;;;;-68
2023/08/04 17:07:57;;;;;;;;;;;;;;;22.17;66.84668;101710.4;;;;-68
2023/08/04 17:12:58;;;;;;;;;;;;;;;22.21;66.60254;101712.7;;;;-73
2023/08/04 17:13:29;;;;;;;0.2;0.1;;;;;;;;;;;;;-73
2023/08/04 17:17:54;;;;;;;;;;;;;;;22.28;66.08691;101714.3;;;;-68
2023/08/04 17:22:54;;;;;;;;;;;;;;;21.89;66.6582;101715.6;;;;-69
2023/08/04 17:27:54;;;;;;;;;;;;;;;22.1;65.54785;101715.5;;;;-69
2023/08/04 17:32:54;;;;;;;;;;;;;;;22.08;65.58984;101721.3;;;;-69
2023/08/04 17:37:56;;;;;;;;;;;;;;;21.98;66.19238;101727;;;;-68
2023/08/04 17:42:54;;;;;;;;;;;;;;;21.87;65.55957;101729;;;;-68
2023/08/04 17:43:34;;;;;;;0.2;0.1;;;;;;;;;;;;;-68
2023/08/04 17:47:54;;;;;;;;;;;;;;;21.76;65.90918;101729.6;;;;-68
2023/08/04 17:52:54;;;;;;;;;;;;;;;21.66;65.89355;101730;;;;-69
2023/08/04 17:57:54;;;;;;;;;;;;;;;21.54;66.30859;101730.5;;;;-69
2023/08/04 18:02:54;;;;;;;;;;;;;;;21.42;66.67871;101734.3;;;;-69
2023/08/04 18:07:54;;;;;;;;;;;;;;;21.28;66.63574;101739.4;;;;-68
2023/08/04 18:12:54;;;;;;;;;;;;;;;21.16;66.9707;101744;;;;-68
2023/08/04 18:13:37;;;;;;;0.2;0;;;;;;;;;;;;;-68
2023/08/04 18:17:54;;;;;;;;;;;;;;;21.04;67.38477;101744.5;;;;-69
2023/08/04 18:22:55;;;;;;;;;;;;;;;20.92;67.72949;101751.7;;;;-69
2023/08/04 18:27:54;;;;;;;;;;;;;;;20.8;68.30273;101754.3;;;;-68
2023/08/04 18:32:54;;;;;;;;;;;;;;;20.67;68.48828;101752.8;;;;-68
2023/08/04 18:37:54;;;;;;;;;;;;;;;20.55;69.09375;101761.5;;;;-69
2023/08/04 18:42:54;;;;;;;;;;;;;;;20.42;69.29004;101762.6;;;;-68
2023/08/04 18:43:41;;;;;;;0.2;0;;;;;;;;;;;;;-68
2023/08/04 18:47:54;;;;;;;;;;;;;;;20.27;69.5957;101765.8;;;;-68
2023/08/04 18:52:54;;;;;;;;;;;;;;;20.13;69.53906;101768.2;;;;-69
2023/08/04 18:57:54;;;;;;;;;;;;;;;19.98;69.0957;101769;;;;-69
2023/08/04 19:02:56;;;;;;;;;;;;;;;19.83;68.8125;101773.9;;;;-70
2023/08/04 19:07:54;;;;;;;;;;;;;;;19.64;69.01074;101776.2;;;;-69
2023/08/04 19:12:56;;;;;;;;;;;;;;;19.46;69.03906;101785.3;;;;-70
2023/08/04 19:13:44;;;;;;;0.2;0;;;;;;;;;;;;;-70
2023/08/04 19:17:54;;;;;;;;;;;;;;;19.29;69.2832;101788.1;;;;-69
2023/08/04 19:22:54;;;;;;;;;;;;;;;19.14;69.38477;101796.3;;;;-69
2023/08/04 19:27:54;;;;;;;;;;;;;;;18.98;69.46289;101805.9;;;;-69
2023/08/04 19:32:54;;;;;;;;;;;;;;;18.8;69.51367;101813.6;;;;-69
2023/08/04 19:37:54;;;;;;;;;;;;;;;18.63;69.54297;101813.5;;;;-72
2023/08/04 19:42:54;;;;;;;;;;;;;;;18.47;69.80176;101823;;;;-72
2023/08/04 19:43:48;;;;;;;0.2;0;;;;;;;;;;;;;-69
2023/08/04 19:47:54;;;;;;;;;;;;;;;18.3;69.57227;101832.6;;;;-72
2023/08/04 19:52:54;;;;;;;;;;;;;;;18.19;70.04102;101832.1;;;;-70
2023/08/04 19:57:54;;;;;;;;;;;;;;;18.06;70.2666;101826.3;;;;-70
2023/08/04 20:02:54;;;;;;;;;;;;;;;17.92;70.3252;101829.5;;;;-68
2023/08/04 20:07:54;;;;;;;;;;;;;;;17.78;70.75293;101849.1;;;;-70
2023/08/04 20:12:54;;;;;;;;;;;;;;;17.63;71.09082;101853.8;;;;-70
2023/08/04 20:13:50;;;;;;;0.2;0;;;;;;;;;;;;;-70
2023/08/04 20:17:54;;;;;;;;;;;;;;;17.51;71.19434;101857.5;;;;-71
2023/08/04 20:22:54;;;;;;;;;;;;;;;17.39;71.44629;101851.7;;;;-68
2023/08/04 20:27:54;;;;;;;;;;;;;;;17.3;71.76953;101862;;;;-69
2023/08/04 20:32:54;;;;;;;;;;;;;;;17.16;71.30859;101862.6;;;;-69
2023/08/04 20:37:54;;;;;;;;;;;;;;;17.05;71.5498;101856.9;;;;-69
2023/08/04 20:42:54;;;;;;;;;;;;;;;16.94;71.7793;101856.4;;;;-69
2023/08/04 20:43:55;;;;;;;0.2;0;;;;;;;;;;;;;-72
2023/08/04 20:47:54;;;;;;;;;;;;;;;16.86;72.23926;101852.5;;;;-69
2023/08/04 20:52:54;;;;;;;;;;;;;;;16.75;72.24414;101847.9;;;;-70
2023/08/04 20:57:56;;;;;;;;;;;;;;;16.67;72.16309;101851.3;;;;-68
2023/08/04 21:02:54;;;;;;;;;;;;;;;16.57;72.18066;101853.9;;;;-70
2023/08/04 21:07:54;;;;;;;;;;;;;;;16.47;72.37793;101866.2;;;;-70
2023/08/04 21:12:54;;;;;;;;;;;;;;;16.39;72.30762;101861.4;;;;-70
2023/08/04 21:13:57;;;;;;;0.2;0.1;;;;;;;;;;;;;-68
2023/08/04 21:17:54;;;;;;;;;;;;;;;16.29;72.66211;101855.5;;;;-70
2023/08/04 21:22:54;;;;;;;;;;;;;;;16.23;72.44043;101858.4;;;;-70
2023/08/04 21:27:54;;;;;;;;;;;;;;;16.16;72.7207;101852;;;;-70
2023/08/04 21:32:54;;;;;;;;;;;;;;;16.11;72.38672;101843.1;;;;-70
2023/08/04 21:37:54;;;;;;;;;;;;;;;16.07;72.72949;101845.8;;;;-70
2023/08/04 21:42:54;;;;;;;;;;;;;;;15.99;72.66895;101850;;;;-70
2023/08/04 21:43:57;;;;;;;0.2;0.1;;;;;;;;;;;;;-69
2023/08/04 21:47:54;;;;;;;;;;;;;;;15.98;73.03809;101850.8;;;;-70
2023/08/04 21:52:54;;;;;;;;;;;;;;;15.97;73.02441;101853.3;;;;-69
2023/08/04 21:57:54;;;;;;;;;;;;;;;15.93;72.8623;101855.2;;;;-69
2023/08/04 22:02:54;;;;;;;;;;;;;;;15.95;73.13477;101848.1;;;;-69
2023/08/04 22:07:54;;;;;;;;;;;;;;;15.88;73.24609;101846.3;;;;-68
2023/08/04 22:12:55;;;;;;;;;;;;;;;15.85;73.33301;101842.2;;;;-69
2023/08/04 22:13:59;;;;;;;0.2;0;;;;;;;;;;;;;-70
2023/08/04 22:17:54;;;;;;;;;;;;;;;15.78;73.30957;101844.8;;;;-72
2023/08/04 22:22:54;;;;;;;;;;;;;;;15.7;73.43066;101842.8;;;;-69
2023/08/04 22:27:54;;;;;;;;;;;;;;;15.65;73.36621;101840.5;;;;-69
2023/08/04 22:32:54;;;;;;;;;;;;;;;15.67;73.54785;101846.8;;;;-68
2023/08/04 22:37:54;;;;;;;;;;;;;;;15.63;73.44238;101850.4;;;;-68
2023/08/04 22:42:58;;;;;;;;;;;;;;;15.66;73.60449;101845.9;;;;-68
2023/08/04 22:44:01;;;;;;;0.2;0;;;;;;;;;;;;;-70
2023/08/04 22:47:54;;;;;;;;;;;;;;;15.65;73.69141;101844.2;;;;-68
2023/08/04 22:52:57;;;;;;;;;;;;;;;15.67;73.7168;101843.3;;;;-69
2023/08/04 22:57:54;;;;;;;;;;;;;;;15.71;73.76855;101840.9;;;;-69
2023/08/04 23:02:54;;;;;;;;;;;;;;;15.69;73.70801;101836.9;;;;-68
2023/08/04 23:07:54;;;;;;;;;;;;;;;15.71;73.56738;101830.8;;;;-69
2023/08/04 23:12:54;;;;;;;;;;;;;;;15.7;73.80078;101823.5;;;;-68
2023/08/04 23:14:03;;;;;;;0.2;0.1;;;;;;;;;;;;;-68
2023/08/04 23:17:54;;;;;;;;;;;;;;;15.72;73.62305;101811.6;;;;-68
2023/08/04 23:22:54;;;;;;;;;;;;;;;15.72;73.67969;101813.6;;;;-69
2023/08/04 23:27:54;;;;;;;;;;;;;;;15.71;73.8252;101809;;;;-69
2023/08/04 23:32:54;;;;;;;;;;;;;;;15.67;73.73926;101796;;;;-68
2023/08/04 23:37:54;;;;;;;;;;;;;;;15.68;73.8418;101790.8;;;;-69
2023/08/04 23:42:56;;;;;;;;;;;;;;;15.68;73.74023;101784.1;;;;-68
2023/08/04 23:44:06;;;;;;;0.2;0.1;;;;;;;;;;;;;-68
2023/08/04 23:47:54;;;;;;;;;;;;;;;15.65;73.83691;101786.6;;;;-68
2023/08/04 23:52:54;;;;;;;;;;;;;;;15.64;73.76758;101786.8;;;;-69
2023/08/04 23:57:54;;;;;;;;;;;;;;;15.61;73.85156;101779.9;;;;-67
